Thursday, February 11, 2016
08:52 UTC
  |  Log In   |  Register Free
Airport Search:

Pearson Field Airport
(KVUO)

Pearson Field Airport Diagram
No Airport Diagram Available

FAA data valid effective Feb 4 2016 - Mar 31 2016 (unless otherwise noted).

 
 
 
 
 
 
 
 
 
 
 
 
 
 
Current Aviation Weather for KVUO

Weather Summary


The most recent METAR observation for VUO was updated at: 12:53 UTC
METAR for KVUO is not available. Closest METAR is for KPDX
KVUO  (most recent observation was updatred at 11:07 UTC)
110753Z AUTO 05003KT 10SM SCT110 09/07 A3023 RMK AO2 SLP237 T00940072 401560033

KPDX  (3.1 nm NW)   (most recent observation was updated at 11:07 UTC)
110753Z 07004KT 10SM SCT110 OVC130 09/07 A3025 RMK AO2 SLP241 T00940067 401670056

KTTD  (11.5 nm NW)   (most recent observation was updated at 11:07 UTC)
110753Z AUTO 06006KT 10SM OVC110 11/07 A3024 RMK AO2 SLP240 T01110072 401330078

TAF for KVUO is not available.
KPDX  (3.1 nm NW)   (most recent observation was updatred at 11:08 UTC)
AMD 110824Z 1108/1206 07004KT P6SM OVC100 FM111600 11008KT P6SM -RA OVC050 FM120100 11007KT P6SM OVC050


KTTD  (11.5 nm NW)   (most recent observation was updatred at 11:08 UTC)
AMD 110823Z 1108/1206 06006KT P6SM OVC110 FM111600 09009KT P6SM -RA OVC050 FM120300 09007KT P6SM OVC100


KHIO  (13.3 nm NE)   (most recent observation was updatred at 11:08 UTC)
AMD 110820Z 1108/1206 16003KT P6SM BKN110 FM111700 VRB04KT P6SM -RA OVC050
GlobalAir.com is loading additional information.
 Current Weather at VUO
48.0 F° (8.9 C°)

North winds at 0.0 mph
Pressure:
30.25 in
Humidity:
86%
Wind:
North at 0.0 mph
Dew Point:
44.1 F° (6.7 C°)
Visibility:
10.00 mi
VUO NOAA Radar




Find All Airport Services Find A Hotel Find A Rental Car Find A Golf Course Find A Restaurant $100 Hamburger



Airport Weather Forecast for KVUO

Translated METAR for KVUO (0753 UTC)
METAR:
KVUO 110753Z AUTO 05003KT 10SM SCT110 09/07 A3023 RMK AO2 SLP237 T00940072 401560033
Conditions at:
KVUO (Pearson Field, WA) observed 0753 UTC 11 February 2016
Temperature:
9°C (48.2°F)
Dewpoint:
7°C (44.6°F) [RH = 87.3]
Pressure:
30.23 inches Hg (1023.7 mb)
pressure at sea level is 237 in Hg
Winds:
from the NE (050 degrees) at 3.5 mph (3 knots: 1.5 m/s)
Visibility:
10 mile(s)
Ceiling:
at least 12,000 feet AGL
Clouds:
Scattered Clouds at 11,000 feet AGL
Remarks:
site is un-manned
site is automated and HAS a precipitation sensor

Translated TAF for KPDX (Portland Intl, OR) (0824 UTC)
TAF text:
KPDX 110824Z 1108/1206 07004KT P6SM OVC100
Forecast period:
Thursday Feb 11 2016 08:00 UTC - Friday Feb 12 2016 06:00 UTC
Forecast type:
FROM: standard forecast or significant change
Winds:
from the ENE (070 degrees) at 4.6 mph (4 knots: 2.1 m/s)
Visibility:
6 or more mile(s) (9.7+ km)
Ceiling:
10,000 feet AGL
Clouds:
Overcast Skies at 10,000 feet AGL
Weather:
no significant weather observed at this time
TAF text:
FM111600 11008KT P6SM -RA OVC050
Forecast period:
Thursday Feb 11 2016 16:00 UTC - Friday Feb 12 2016 01:00 UTC
Forecast type:
FROM: standard forecast or significant change
Winds:
from the ESE (110 degrees) at 9.2 mph (8 knots: 4.1 m/s)
Visibility:
6 or more mile(s) (9.7+ km)
Ceiling:
5,000 feet AGL
Clouds:
Overcast Skies at 5,000 feet AGL
Weather:
Light Rain
TAF text:
FM120100 11007KT P6SM OVC050
Forecast period:
Friday Feb 12 2016 01:00 UTC - Friday Feb 12 2016 06:00 UTC
Forecast type:
FROM: standard forecast or significant change
Winds:
from the ESE (110 degrees) at 8.1 mph (7 knots: 3.6 m/s)
Visibility:
6 or more mile(s) (9.7+ km)
Ceiling:
5,000 feet AGL
Clouds:
Overcast Skies at 5,000 feet AGL
Weather:
no significant weather observed at this time
FBO's on the Field
FBO Company Facility Photos Services Transportation Aviation Fuel Prices: Prices include tax
Catering Weather Repair Courtesy Rental Type 100LL JetA JetA+ MOGAS 8087
 
Aero Maintenance Inc

This FBO has not yet been rated
FS:Epic
Last Updated: Jan-25
Login to update fuel prices
SS:
Contact Aero Maintenance IncMore FBO Information
 
Add another FBO Facility Photos Catering Weather Repair Courtesy Rental Type 100LL JetA JetA+ MOGAS 8087
Services Transportation Aviation Fuel Prices: Prices include tax


model-print
model-print
model-print
model-print